createdAt,value
2017-08-21T00:00:29.732Z,89.80
2017-08-21T00:02:57.368Z,89.80
2017-08-21T00:05:24.977Z,89.90
2017-08-21T00:07:52.578Z,89.70
2017-08-21T00:10:20.235Z,89.70
2017-08-21T00:12:47.820Z,90.00
2017-08-21T00:15:15.407Z,90.00
2017-08-21T00:17:43.809Z,90.10
2017-08-21T00:20:11.414Z,90.10
2017-08-21T00:22:39.770Z,90.30
2017-08-21T00:25:07.401Z,90.20
2017-08-21T00:27:34.987Z,90.30
2017-08-21T00:30:02.577Z,90.40
2017-08-21T00:32:30.221Z,90.30
2017-08-21T00:34:57.811Z,90.40
2017-08-21T00:37:25.514Z,90.50
2017-08-21T00:39:53.124Z,90.40
2017-08-21T00:42:20.732Z,90.50
2017-08-21T00:44:49.092Z,90.30
2017-08-21T00:47:17.493Z,90.50
2017-08-21T00:49:45.095Z,90.50
2017-08-21T00:52:12.684Z,90.50
2017-08-21T00:54:40.306Z,90.40
2017-08-21T00:57:07.888Z,90.40
2017-08-21T00:59:35.461Z,90.50
2017-08-21T01:02:03.098Z,90.40
2017-08-21T01:04:30.692Z,90.50
2017-08-21T01:06:58.286Z,90.50
2017-08-21T01:09:25.918Z,90.40
2017-08-21T01:11:53.513Z,90.50
2017-08-21T01:14:21.114Z,90.40
2017-08-21T01:16:48.773Z,90.50
2017-08-21T01:19:16.378Z,90.40
2017-08-21T01:21:43.965Z,90.40
2017-08-21T01:24:11.603Z,90.50
2017-08-21T01:26:39.192Z,90.50
2017-08-21T01:29:06.795Z,90.50
2017-08-21T01:31:34.432Z,90.50
2017-08-21T01:34:02.016Z,90.40
2017-08-21T01:36:29.590Z,90.40
2017-08-21T01:38:57.247Z,90.50
2017-08-21T01:41:24.849Z,90.50
2017-08-21T01:43:52.418Z,90.50
2017-08-21T01:46:20.046Z,90.50
2017-08-21T01:48:47.632Z,90.30
2017-08-21T01:51:15.207Z,90.40
2017-08-21T01:53:43.603Z,90.50
2017-08-21T01:56:11.185Z,90.20
2017-08-21T01:58:38.778Z,90.30
2017-08-21T02:01:06.538Z,90.40
2017-08-21T02:03:34.124Z,90.40
2017-08-21T02:06:01.700Z,90.50
2017-08-21T02:08:29.321Z,90.40
2017-08-21T02:10:56.898Z,90.20
2017-08-21T02:13:25.248Z,90.30
2017-08-21T02:15:53.649Z,90.50
2017-08-21T02:18:21.236Z,90.40
2017-08-21T02:20:48.829Z,90.50
2017-08-21T02:23:16.462Z,90.40
2017-08-21T02:25:44.050Z,90.60
2017-08-21T02:28:11.641Z,90.50
2017-08-21T02:30:40.046Z,90.70
2017-08-21T02:33:07.682Z,90.70
2017-08-21T02:35:35.268Z,90.70
2017-08-21T02:38:07.687Z,90.70
2017-08-21T02:40:35.286Z,90.80
2017-08-21T02:43:03.623Z,91.10
2017-08-21T02:45:31.437Z,90.90
2017-08-21T02:47:59.033Z,90.90
2017-08-21T02:50:26.634Z,91.00
2017-08-21T02:52:54.261Z,91.00
2017-08-21T02:55:21.863Z,90.90
2017-08-21T02:57:49.466Z,90.90
2017-08-21T03:00:17.101Z,90.90
2017-08-21T03:02:44.688Z,91.00
2017-08-21T03:05:12.272Z,90.90
2017-08-21T03:07:39.942Z,91.00
2017-08-21T03:10:07.528Z,90.80
2017-08-21T03:12:35.127Z,90.80
2017-08-21T03:15:02.771Z,90.60
2017-08-21T03:17:30.356Z,90.50
2017-08-21T03:19:57.943Z,90.50
2017-08-21T03:22:25.579Z,90.50
2017-08-21T03:24:53.178Z,90.40
2017-08-21T03:27:20.760Z,90.50
2017-08-21T03:29:48.520Z,90.60
2017-08-21T03:32:16.109Z,90.50
2017-08-21T03:34:43.683Z,90.50
2017-08-21T03:37:11.339Z,90.50
2017-08-21T03:39:38.938Z,90.50
2017-08-21T03:42:06.534Z,90.50
2017-08-21T03:44:34.942Z,90.50
2017-08-21T03:47:02.524Z,90.50
2017-08-21T03:49:30.838Z,90.50
2017-08-21T03:51:58.489Z,90.50
2017-08-21T03:54:26.112Z,90.50
2017-08-21T03:56:53.701Z,90.60
2017-08-21T03:59:21.504Z,90.50
2017-08-21T04:01:49.078Z,90.60
2017-08-21T04:04:16.660Z,90.60
2017-08-21T04:06:44.298Z,90.60
2017-08-21T04:09:11.875Z,90.70
2017-08-21T04:11:39.476Z,90.60
2017-08-21T04:14:07.127Z,90.60
2017-08-21T04:16:34.699Z,90.60
2017-08-21T04:19:02.293Z,90.50
2017-08-21T04:21:29.938Z,90.60
2017-08-21T04:23:57.515Z,90.70
2017-08-21T04:26:25.105Z,90.70
2017-08-21T04:28:52.745Z,90.60
2017-08-21T04:31:20.346Z,90.60
2017-08-21T04:33:47.948Z,90.60
2017-08-21T04:36:15.584Z,90.50
2017-08-21T04:38:43.176Z,90.50
2017-08-21T04:41:10.770Z,90.50
2017-08-21T04:43:38.434Z,90.50
2017-08-21T04:46:06.033Z,90.60
2017-08-21T04:48:33.605Z,90.40
2017-08-21T04:51:01.249Z,90.40
2017-08-21T04:53:28.822Z,90.40
2017-08-21T04:55:56.478Z,90.50
2017-08-21T04:58:24.107Z,90.40
2017-08-21T05:00:51.698Z,90.40
2017-08-21T05:03:20.051Z,90.30
2017-08-21T05:05:47.707Z,90.20
2017-08-21T05:08:16.049Z,89.90
2017-08-21T05:10:43.627Z,89.80
2017-08-21T05:13:11.255Z,89.80
2017-08-21T05:15:39.590Z,89.80
2017-08-21T05:18:07.173Z,89.70
2017-08-21T05:20:35.035Z,89.50
2017-08-21T05:23:02.614Z,89.20
2017-08-21T05:25:30.218Z,89.40
2017-08-21T05:27:57.847Z,89.50
2017-08-21T05:30:26.215Z,89.50
2017-08-21T05:32:53.793Z,89.50
2017-08-21T05:35:21.441Z,89.30
2017-08-21T05:37:49.060Z,89.00
2017-08-21T05:40:16.648Z,89.00
2017-08-21T05:42:44.294Z,89.00
2017-08-21T05:45:11.870Z,88.60
2017-08-21T05:47:40.237Z,89.20
2017-08-21T05:50:08.633Z,88.60
2017-08-21T05:52:36.207Z,88.50
2017-08-21T05:55:03.805Z,88.10
2017-08-21T05:57:31.458Z,87.60
2017-08-21T05:59:59.048Z,87.20
2017-08-21T06:02:26.622Z,86.70
2017-08-21T06:04:55.031Z,86.30
2017-08-21T06:07:22.615Z,86.20
2017-08-21T06:09:50.243Z,86.20
2017-08-21T06:12:17.894Z,85.50
2017-08-21T06:14:46.358Z,85.10
2017-08-21T06:17:14.066Z,85.10
2017-08-21T06:19:41.691Z,81.40
2017-08-21T06:22:10.047Z,80.50
2017-08-21T06:24:37.618Z,80.40
2017-08-21T06:27:05.291Z,80.70
2017-08-21T06:29:32.858Z,80.90
2017-08-21T06:32:00.426Z,80.40
2017-08-21T06:34:28.124Z,80.10
2017-08-21T06:36:56.054Z,79.20
2017-08-21T06:39:23.631Z,78.80
2017-08-21T06:41:51.266Z,77.40
2017-08-21T06:44:18.830Z,77.10
2017-08-21T06:46:46.412Z,76.50
2017-08-21T06:49:14.048Z,75.10
2017-08-21T06:51:41.637Z,71.80
2017-08-21T06:54:09.242Z,69.40
2017-08-21T06:56:36.895Z,66.50
2017-08-21T06:59:04.585Z,65.50
2017-08-21T07:01:32.178Z,65.00
2017-08-21T07:03:59.838Z,64.50
2017-08-21T07:06:27.434Z,63.40
2017-08-21T07:08:55.012Z,61.80
2017-08-21T07:11:22.647Z,62.00
2017-08-21T07:13:50.233Z,62.10
2017-08-21T07:16:17.821Z,61.60
2017-08-21T07:18:46.233Z,60.40
2017-08-21T07:21:13.824Z,60.40
2017-08-21T07:23:41.396Z,60.10
2017-08-21T07:26:37.331Z,59.90
2017-08-21T07:29:04.925Z,60.80
2017-08-21T07:31:32.516Z,61.40
2017-08-21T07:34:00.135Z,62.40
2017-08-21T07:36:27.730Z,62.40
2017-08-21T07:38:55.330Z,62.20
2017-08-21T07:41:22.980Z,62.70
2017-08-21T07:43:50.546Z,61.80
2017-08-21T07:46:18.133Z,61.80
2017-08-21T07:48:45.773Z,61.30
2017-08-21T07:51:13.343Z,61.00
2017-08-21T07:53:40.924Z,60.90
2017-08-21T07:56:08.571Z,61.40
2017-08-21T07:58:36.168Z,61.10
2017-08-21T08:01:03.751Z,61.30
2017-08-21T08:03:31.406Z,61.80
2017-08-21T08:05:59.130Z,62.20
2017-08-21T08:08:26.780Z,64.00
2017-08-21T08:10:54.439Z,64.70
2017-08-21T08:13:22.028Z,65.80
2017-08-21T08:15:49.616Z,67.40
2017-08-21T08:18:17.247Z,68.00
2017-08-21T08:20:44.836Z,68.60
2017-08-21T08:23:12.418Z,68.70
2017-08-21T08:25:40.060Z,69.00
2017-08-21T08:28:07.642Z,69.50
2017-08-21T08:30:35.222Z,70.30
2017-08-21T08:33:02.865Z,70.70
2017-08-21T08:35:30.462Z,71.60
2017-08-21T08:37:58.049Z,72.10
2017-08-21T08:40:25.688Z,73.20
2017-08-21T08:42:53.281Z,74.00
2017-08-21T08:45:20.870Z,74.50
2017-08-21T08:47:48.673Z,74.50
2017-08-21T08:50:16.278Z,74.30
2017-08-21T08:52:43.880Z,74.70
2017-08-21T08:55:11.530Z,75.90
2017-08-21T08:57:39.127Z,76.80
2017-08-21T09:00:06.707Z,78.40
2017-08-21T09:02:34.487Z,79.60
2017-08-21T09:05:02.072Z,80.40
2017-08-21T09:07:29.650Z,80.80
2017-08-21T09:09:57.280Z,80.40
2017-08-21T09:12:24.868Z,77.30
2017-08-21T09:14:52.457Z,76.80
2017-08-21T09:17:20.078Z,76.60
2017-08-21T09:19:47.670Z,76.30
2017-08-21T09:22:15.258Z,75.40
2017-08-21T09:24:42.909Z,75.60
2017-08-21T09:27:10.516Z,75.00
2017-08-21T09:29:38.103Z,75.20
2017-08-21T09:32:05.743Z,74.80
2017-08-21T09:34:33.329Z,75.20
2017-08-21T09:37:00.932Z,75.20
2017-08-21T09:39:28.551Z,74.90
2017-08-21T09:41:56.132Z,76.60
2017-08-21T09:44:23.741Z,76.80
2017-08-21T09:46:51.508Z,76.70
2017-08-21T09:49:19.092Z,78.30
2017-08-21T09:51:46.673Z,77.90
2017-08-21T09:54:14.303Z,78.00
2017-08-21T09:56:41.939Z,77.90
2017-08-21T09:59:09.528Z,78.60
2017-08-21T10:01:37.161Z,77.30
2017-08-21T10:04:04.753Z,76.70
2017-08-21T10:06:32.342Z,76.00
2017-08-21T10:09:00.003Z,74.90
2017-08-21T10:11:27.594Z,74.60
2017-08-21T10:13:55.180Z,74.40
2017-08-21T10:16:23.016Z,74.30
2017-08-21T10:18:50.614Z,73.60
2017-08-21T10:21:18.197Z,73.50
2017-08-21T10:23:45.835Z,72.60
2017-08-21T10:26:13.441Z,72.80
2017-08-21T10:28:41.016Z,70.40
2017-08-21T10:31:08.645Z,69.50
2017-08-21T10:33:36.231Z,67.70
2017-08-21T10:36:03.813Z,65.90
2017-08-21T10:38:31.446Z,65.50
2017-08-21T10:40:59.028Z,64.50
2017-08-21T10:43:26.611Z,64.20
2017-08-21T10:45:54.238Z,64.30
2017-08-21T10:48:21.823Z,65.30
2017-08-21T10:50:49.401Z,66.30
2017-08-21T10:53:17.042Z,65.90
2017-08-21T10:55:44.642Z,66.00
2017-08-21T10:58:12.226Z,66.40
2017-08-21T11:00:39.879Z,67.10
2017-08-21T11:03:07.478Z,67.60
2017-08-21T11:05:35.064Z,67.80
2017-08-21T11:08:03.613Z,67.20
2017-08-21T11:10:31.213Z,67.20
2017-08-21T11:12:58.800Z,67.50
2017-08-21T11:15:26.447Z,66.50
2017-08-21T11:17:54.048Z,65.30
2017-08-21T11:20:21.644Z,64.30
2017-08-21T11:22:49.286Z,63.50
2017-08-21T11:25:16.881Z,62.20
2017-08-21T11:27:44.465Z,61.00
2017-08-21T11:30:12.088Z,59.70
2017-08-21T11:32:39.659Z,59.30
2017-08-21T11:35:07.249Z,58.20
2017-08-21T11:37:34.871Z,59.10
2017-08-21T11:40:03.232Z,56.50
2017-08-21T11:42:31.598Z,56.50
2017-08-21T11:44:59.211Z,56.50
2017-08-21T11:47:26.783Z,57.20
2017-08-21T11:49:54.379Z,57.70
2017-08-21T11:52:22.021Z,58.50
2017-08-21T11:54:49.623Z,58.90
2017-08-21T11:57:17.216Z,58.20
2017-08-21T11:59:45.012Z,58.10
2017-08-21T12:02:12.614Z,57.20
2017-08-21T12:04:40.192Z,57.20
2017-08-21T12:07:07.822Z,56.10
2017-08-21T12:09:35.400Z,55.40
2017-08-21T12:12:02.963Z,54.70
2017-08-21T12:14:30.594Z,55.60
2017-08-21T12:16:58.174Z,56.10
2017-08-21T12:19:25.782Z,56.50
2017-08-21T12:21:53.391Z,56.60
2017-08-21T12:24:20.985Z,57.30
2017-08-21T12:26:48.578Z,56.70
2017-08-21T12:29:16.205Z,56.80
2017-08-21T12:31:43.822Z,56.70
2017-08-21T12:34:11.408Z,57.00
2017-08-21T12:36:39.043Z,56.90
2017-08-21T12:39:06.668Z,57.20
2017-08-21T12:41:34.239Z,57.60
2017-08-21T12:44:01.891Z,58.40
2017-08-21T12:46:29.491Z,57.40
2017-08-21T12:48:57.073Z,57.40
2017-08-21T12:51:24.740Z,57.80
2017-08-21T12:53:52.306Z,56.80
2017-08-21T12:56:19.889Z,56.70
2017-08-21T12:58:47.538Z,54.20
2017-08-21T13:01:15.134Z,53.10
2017-08-21T13:03:42.780Z,53.30
2017-08-21T13:06:10.404Z,54.20
2017-08-21T13:08:37.971Z,55.30
2017-08-21T13:11:05.544Z,55.60
2017-08-21T13:13:33.465Z,54.40
2017-08-21T13:16:01.053Z,55.50
2017-08-21T13:18:28.652Z,56.20
2017-08-21T13:20:56.283Z,56.80
2017-08-21T13:23:23.881Z,56.10
2017-08-21T13:25:51.455Z,56.00
2017-08-21T13:28:19.230Z,56.10
2017-08-21T13:30:46.827Z,55.80
2017-08-21T13:33:14.421Z,54.40
2017-08-21T13:35:42.040Z,54.80
2017-08-21T13:38:09.615Z,55.30
2017-08-21T13:40:37.196Z,55.80
2017-08-21T13:43:04.830Z,55.60
2017-08-21T13:45:32.412Z,56.40
2017-08-21T13:48:00.013Z,56.20
2017-08-21T13:50:27.652Z,56.30
2017-08-21T13:52:55.233Z,56.90
2017-08-21T13:55:22.815Z,56.50
2017-08-21T13:57:50.452Z,56.40
2017-08-21T14:00:18.367Z,57.00
2017-08-21T14:02:46.004Z,57.10
2017-08-21T14:05:13.633Z,56.40
2017-08-21T14:07:41.203Z,55.30
2017-08-21T14:10:08.856Z,55.10
2017-08-21T14:12:36.483Z,55.60
2017-08-21T14:15:04.060Z,55.30
2017-08-21T14:17:31.640Z,54.30
2017-08-21T14:19:59.254Z,54.70
2017-08-21T14:22:26.842Z,54.60
2017-08-21T14:24:54.462Z,54.70
2017-08-21T14:27:22.067Z,54.90
2017-08-21T14:29:49.645Z,54.60
2017-08-21T14:32:17.218Z,55.00
2017-08-21T14:34:44.958Z,55.90
2017-08-21T14:37:12.536Z,56.30
2017-08-21T14:39:40.102Z,57.10
2017-08-21T14:42:07.746Z,56.90
2017-08-21T14:44:35.349Z,56.90
2017-08-21T14:47:03.018Z,56.20
2017-08-21T14:49:30.661Z,56.00
2017-08-21T14:51:58.309Z,56.10
2017-08-21T14:54:25.905Z,55.90
2017-08-21T14:56:53.601Z,56.50
2017-08-21T14:59:21.188Z,57.00
2017-08-21T15:01:48.792Z,57.90
2017-08-21T15:04:16.454Z,58.60
2017-08-21T15:06:44.049Z,59.50
2017-08-21T15:09:11.669Z,59.90
2017-08-21T15:11:40.094Z,61.50
2017-08-21T15:14:07.676Z,61.40
2017-08-21T15:16:35.255Z,61.30
2017-08-21T15:19:02.918Z,61.50
2017-08-21T15:21:30.518Z,60.70
2017-08-21T15:23:58.114Z,60.60
2017-08-21T15:26:25.739Z,60.40
2017-08-21T15:28:53.340Z,60.70
2017-08-21T15:31:20.945Z,60.00
2017-08-21T15:33:48.576Z,61.70
2017-08-21T15:36:16.150Z,61.30
2017-08-21T15:38:43.750Z,62.00
2017-08-21T15:41:12.857Z,61.70
2017-08-21T15:43:41.525Z,61.60
2017-08-21T15:46:09.384Z,62.60
2017-08-21T15:48:37.019Z,62.30
2017-08-21T15:51:04.618Z,63.10
2017-08-21T15:53:32.208Z,62.90
2017-08-21T15:55:59.850Z,61.60
2017-08-21T15:58:27.449Z,60.90
2017-08-21T16:00:55.067Z,62.40
2017-08-21T16:03:22.698Z,61.60
2017-08-21T16:05:50.297Z,59.80
2017-08-21T16:08:17.876Z,59.40
2017-08-21T16:10:45.508Z,60.00
2017-08-21T16:13:13.093Z,58.80
2017-08-21T16:15:40.679Z,59.10
2017-08-21T16:18:08.306Z,59.70
2017-08-21T16:20:36.008Z,58.50
2017-08-21T16:23:03.614Z,59.00
2017-08-21T16:25:31.234Z,59.10
2017-08-21T16:27:58.835Z,58.90
2017-08-21T16:30:26.483Z,59.30
2017-08-21T16:32:54.294Z,59.80
2017-08-21T16:35:21.894Z,60.50
2017-08-21T16:37:49.515Z,60.10
2017-08-21T16:40:17.472Z,59.90
2017-08-21T16:42:45.066Z,59.50
2017-08-21T16:45:12.676Z,58.60
2017-08-21T16:47:40.373Z,59.10
2017-08-21T16:50:08.005Z,59.10
2017-08-21T16:52:35.615Z,58.80
2017-08-21T16:55:03.245Z,58.50
2017-08-21T16:57:30.847Z,59.10
2017-08-21T16:59:58.430Z,59.10
2017-08-21T17:02:26.073Z,59.30
2017-08-21T17:04:53.738Z,60.00
2017-08-21T17:07:21.370Z,60.30
2017-08-21T17:09:49.014Z,60.40
2017-08-21T17:12:16.594Z,61.10
2017-08-21T17:14:44.209Z,60.40
2017-08-21T17:17:11.849Z,60.90
2017-08-21T17:19:39.437Z,60.60
2017-08-21T17:22:07.038Z,61.10
2017-08-21T17:24:34.682Z,61.40
2017-08-21T17:27:02.267Z,61.50
2017-08-21T17:29:29.869Z,62.00
2017-08-21T17:31:57.517Z,62.30
2017-08-21T17:34:25.101Z,62.60
2017-08-21T17:36:52.693Z,63.10
2017-08-21T17:39:20.332Z,63.50
2017-08-21T17:41:47.916Z,64.10
2017-08-21T17:44:15.499Z,64.50
2017-08-21T17:46:43.448Z,65.20
2017-08-21T17:49:11.033Z,65.20
2017-08-21T17:51:38.606Z,65.60
2017-08-21T17:54:06.283Z,66.40
2017-08-21T17:56:33.907Z,67.20
2017-08-21T17:59:01.499Z,66.80
2017-08-21T18:01:29.128Z,66.70
2017-08-21T18:03:56.709Z,66.50
2017-08-21T18:06:24.293Z,66.90
2017-08-21T18:08:51.954Z,67.40
2017-08-21T18:11:19.541Z,67.40
2017-08-21T18:13:47.179Z,67.70
2017-08-21T18:16:15.646Z,68.00
2017-08-21T18:18:43.393Z,68.40
2017-08-21T18:21:10.982Z,68.50
2017-08-21T18:23:38.844Z,68.90
2017-08-21T18:26:06.471Z,69.20
2017-08-21T18:28:34.056Z,69.20
2017-08-21T18:31:01.678Z,69.60
2017-08-21T18:33:29.264Z,69.90
2017-08-21T18:35:56.844Z,70.30
2017-08-21T18:38:24.489Z,71.00
2017-08-21T18:40:52.118Z,70.90
2017-08-21T18:43:19.855Z,71.30
2017-08-21T18:45:47.481Z,71.80
2017-08-21T18:48:15.065Z,71.80
2017-08-21T18:50:42.681Z,72.20
2017-08-21T18:53:10.508Z,72.90
2017-08-21T18:55:38.110Z,73.40
2017-08-21T18:58:06.059Z,73.40
2017-08-21T19:00:33.834Z,73.30
2017-08-21T19:03:01.532Z,73.30
2017-08-21T19:05:29.606Z,73.60
2017-08-21T19:07:57.462Z,73.80
2017-08-21T19:10:25.345Z,74.10
2017-08-21T19:12:52.984Z,74.30
2017-08-21T19:15:20.922Z,74.60
2017-08-21T19:17:48.972Z,74.70
2017-08-21T19:20:16.685Z,74.70
2017-08-21T19:22:44.398Z,75.10
2017-08-21T19:25:12.381Z,75.30
2017-08-21T19:27:40.303Z,75.60
2017-08-21T19:30:07.941Z,75.60
2017-08-21T19:32:35.520Z,76.00
2017-08-21T19:35:03.114Z,76.30
2017-08-21T19:37:30.746Z,76.70
2017-08-21T19:39:58.332Z,77.00
2017-08-21T19:42:25.902Z,77.10
2017-08-21T19:44:53.539Z,77.30
2017-08-21T19:47:21.136Z,77.50
2017-08-21T19:49:48.743Z,77.70
2017-08-21T19:52:16.366Z,77.90
2017-08-21T19:54:43.949Z,78.00
2017-08-21T19:57:11.528Z,78.20
2017-08-21T19:59:39.168Z,78.50
2017-08-21T20:02:06.770Z,78.70
2017-08-21T20:04:34.380Z,78.90
2017-08-21T20:07:02.016Z,79.20
2017-08-21T20:09:29.614Z,79.20
2017-08-21T20:11:57.205Z,79.40
2017-08-21T20:14:25.752Z,79.40
2017-08-21T20:16:53.342Z,79.60
2017-08-21T20:19:20.928Z,79.90
2017-08-21T20:21:48.721Z,80.10
2017-08-21T20:24:16.380Z,80.30
2017-08-21T20:26:43.982Z,80.30
2017-08-21T20:29:11.610Z,80.30
2017-08-21T20:31:39.211Z,80.40
2017-08-21T20:34:06.800Z,80.60
2017-08-21T20:36:34.457Z,80.70
2017-08-21T20:39:02.063Z,81.00
2017-08-21T20:41:29.668Z,81.00
2017-08-21T20:43:57.325Z,81.00
2017-08-21T20:46:24.908Z,81.10
2017-08-21T20:48:52.483Z,81.30
2017-08-21T20:51:20.114Z,80.70
2017-08-21T20:53:47.707Z,81.50
2017-08-21T20:56:15.331Z,81.70
2017-08-21T20:58:42.956Z,81.80
2017-08-21T21:01:10.553Z,81.80
2017-08-21T21:03:38.146Z,81.90
2017-08-21T21:06:05.767Z,82.10
2017-08-21T21:08:33.355Z,82.10
2017-08-21T21:11:00.938Z,82.30
2017-08-21T21:13:28.564Z,82.40
2017-08-21T21:15:56.160Z,82.50
2017-08-21T21:18:23.741Z,82.70
2017-08-21T21:20:51.384Z,82.90
2017-08-21T21:23:18.982Z,83.10
2017-08-21T21:25:46.566Z,83.00
2017-08-21T21:28:14.201Z,83.50
2017-08-21T21:30:41.781Z,83.70
2017-08-21T21:33:09.360Z,84.00
2017-08-21T21:35:36.972Z,84.20
2017-08-21T21:38:04.548Z,84.40
2017-08-21T21:40:32.150Z,84.40
2017-08-21T21:42:59.790Z,84.60
2017-08-21T21:45:27.382Z,84.80
2017-08-21T21:47:54.973Z,84.80
2017-08-21T21:50:22.928Z,84.90
2017-08-21T21:52:50.515Z,85.10
2017-08-21T21:55:18.102Z,85.20
2017-08-21T21:57:45.745Z,85.20
2017-08-21T22:00:13.344Z,85.20
2017-08-21T22:02:40.922Z,85.20
2017-08-21T22:05:08.573Z,85.90
2017-08-21T22:07:36.157Z,85.30
2017-08-21T22:10:03.745Z,85.30
2017-08-21T22:12:31.376Z,85.10
2017-08-21T22:14:58.974Z,85.10
2017-08-21T22:17:26.570Z,85.20
2017-08-21T22:19:54.207Z,84.90
2017-08-21T22:22:21.792Z,84.60
2017-08-21T22:24:49.394Z,84.60
2017-08-21T22:27:17.020Z,84.50
2017-08-21T22:29:44.603Z,83.70
2017-08-21T22:32:12.184Z,84.20
2017-08-21T22:34:39.826Z,84.00
2017-08-21T22:37:07.424Z,83.80
2017-08-21T22:39:35.004Z,83.60
2017-08-21T22:42:02.859Z,83.70
2017-08-21T22:44:30.449Z,83.70
2017-08-21T22:46:58.022Z,83.70
2017-08-21T22:49:25.896Z,83.80
2017-08-21T22:51:53.481Z,84.00
2017-08-21T22:54:21.064Z,84.00
2017-08-21T22:56:48.702Z,84.20
2017-08-21T22:59:16.303Z,84.30
2017-08-21T23:01:43.902Z,84.50
2017-08-21T23:04:11.541Z,84.80
2017-08-21T23:06:39.125Z,84.90
2017-08-21T23:09:06.718Z,85.30
2017-08-21T23:11:34.360Z,85.50
2017-08-21T23:14:01.938Z,86.10
2017-08-21T23:16:29.521Z,86.00
2017-08-21T23:18:57.158Z,85.90
2017-08-21T23:21:24.748Z,86.20
2017-08-21T23:23:52.387Z,86.50
2017-08-21T23:26:20.779Z,87.40
2017-08-21T23:28:48.365Z,87.20
2017-08-21T23:31:16.003Z,87.40
2017-08-21T23:33:43.766Z,87.60
2017-08-21T23:36:11.352Z,87.70
2017-08-21T23:38:38.922Z,88.00
2017-08-21T23:41:06.574Z,88.20
2017-08-21T23:43:34.170Z,88.20
2017-08-21T23:46:01.756Z,88.10
2017-08-21T23:48:29.398Z,88.30
2017-08-21T23:50:56.997Z,88.40
2017-08-21T23:53:24.581Z,88.20
2017-08-21T23:55:52.216Z,88.40
2017-08-21T23:58:19.790Z,88.40
